This is the latest recevied weather packets stored in our database for station/object NR6G-5. If no packets are shown the sender has not sent any weather packets the latest 10 day(s).
| Time | Temp. | Humidity | Pressure | Rain* | Wind** | Luminosity | Snow |
|---|---|---|---|---|---|---|---|
| 1777650559 | 21.67° C | 52% | 1013.5 hPa | 0 mm | - | - | - |
| 1777649957 | 21.67° C | 52% | 1013.5 hPa | 0 mm | - | - | - |
| 1777649662 | 21.11° C | 53% | 1013.4 hPa | 0 mm | - | - | - |
| 1777649065 | 21.11° C | 53% | 1013.4 hPa | 0 mm | - | - | - |
| 1777648762 | 21.67° C | 51% | 1013.3 hPa | 0 mm | - | - | - |
| 1777648463 | 21.67° C | 51% | 1013.4 hPa | 0 mm | - | - | - |
| 1777647864 | 21.67° C | 54% | 1013.4 hPa | 0 mm | - | - | - |
| 1777647562 | 21.11° C | 56% | 1013.3 hPa | 0 mm | - | - | - |
| 1777647262 | 20.56° C | 59% | 1013.3 hPa | 0 mm | - | - | - |
| 1777646957 | 20° C | 61% | 1013.3 hPa | 0 mm | - | - | - |
| 1777646657 | 19.44° C | 62% | 1013.2 hPa | 0 mm | - | - | - |
| 1777646358 | 19.44° C | 62% | 1013.2 hPa | 0 mm | - | - | - |
| 1777646058 | 18.89° C | 62% | 1013.2 hPa | 0 mm | - | - | - |
| 1777645757 | 18.33° C | 64% | 1013.1 hPa | 0 mm | - | - | - |
| 1777645458 | 18.33° C | 66% | 1013 hPa | 0 mm | - | - | - |
| 1777645157 | 17.78° C | 67% | 1013 hPa | 0 mm | - | - | - |
| 1777644857 | 17.22° C | 67% | 1013 hPa | 0 mm | - | - | - |
| 1777644558 | 16.11° C | 70% | 1013 hPa | 0 mm | - | - | - |
| 1777644263 | 16.11° C | 70% | 1013 hPa | 0 mm | - | - | - |
| 1777643357 | 15° C | 76% | 1012.9 hPa | 0 mm | - | - | - |
| 1777643058 | 14.44° C | 77% | 1012.8 hPa | 0 mm | - | - | - |
| 1777642612 | 13.89° C | 78% | 1012.8 hPa | 0 mm | - | - | - |
| 1777641713 | 13.89° C | 76% | 1012.7 hPa | 0 mm | - | - | - |
| 1777641412 | 14.44° C | 74% | 1012.6 hPa | 0 mm | - | - | - |
| 1777640813 | 15.56° C | 70% | 1012.5 hPa | 0 mm | - | - | - |
* Rain latest hour (hover to see other rain measurements)
** Current wind speed in m/s (hover to see current wind gust speed)